Archival Weather

Vermilion Rgnl

Danville, Illinois (KDNV)

Report from: Tuesday, March 26, 2024 8:35 PM CDT
Current time: Sunday, July 14, 2024 6:34 AM CDT

Current weather – Weather history – Daily summaries
Weather forecast

Temperature4.6°C (40.3°F)
Wind chill-0.6°C (31.0°F)
Dew point0.8°C (33.4°F)
Winds 17 kts (8.7 m/s, 19.6 mph) West-Southwest (240°)
Wind gusts 24 kts (12.3 m/s, 27.6 mph)
Visibility10 mi. (16.1 km)
Clouds Ceiling: Overcast 2,100 ft. (640 m)
Altimeter29.81 in.Hg (1009 mB)
Relative humidity76 %
Density altitude-1,032 ft. (-315 m)
Remarks Fully automated report
Automated weather observing station with precipitation discriminator
Flight conditions Marginal Visual Meteorological Conditions
Raw dataKDNV 270135Z AUTO 24017G24KT 10SM OVC021 05/01 A2981 RMK AO2 T00460008
An error has occurred. This application may no longer respond until reloaded. Reload 🗙